sensor_id;sensor_type;location;lat;lon;timestamp;temperature;humidity
16198;DHT22;8206;51.440;6.914;2023-12-20T00:02:03;7.90;99.90
16198;DHT22;8206;51.440;6.914;2023-12-20T00:04:30;7.80;99.90
16198;DHT22;8206;51.440;6.914;2023-12-20T00:06:57;7.90;99.90
16198;DHT22;8206;51.440;6.914;2023-12-20T00:09:25;7.80;99.90
16198;DHT22;8206;51.440;6.914;2023-12-20T00:11:51;7.80;99.90
16198;DHT22;8206;51.440;6.914;2023-12-20T00:14:18;7.80;99.90
16198;DHT22;8206;51.440;6.914;2023-12-20T00:16:45;7.80;99.90
16198;DHT22;8206;51.440;6.914;2023-12-20T00:19:11;7.70;99.90
16198;DHT22;8206;51.440;6.914;2023-12-20T00:21:38;7.70;99.90
16198;DHT22;8206;51.440;6.914;2023-12-20T00:24:05;7.60;99.90
16198;DHT22;8206;51.440;6.914;2023-12-20T00:26:33;7.60;99.90
16198;DHT22;8206;51.440;6.914;2023-12-20T00:29:00;7.50;99.90
16198;DHT22;8206;51.440;6.914;2023-12-20T00:31:26;7.30;99.90
16198;DHT22;8206;51.440;6.914;2023-12-20T00:33:53;7.30;99.90
16198;DHT22;8206;51.440;6.914;2023-12-20T00:36:20;7.20;99.90
16198;DHT22;8206;51.440;6.914;2023-12-20T00:38:46;7.20;99.90
16198;DHT22;8206;51.440;6.914;2023-12-20T00:41:13;7.20;99.90
16198;DHT22;8206;51.440;6.914;2023-12-20T00:43:41;7.10;99.90
16198;DHT22;8206;51.440;6.914;2023-12-20T00:46:08;7.10;99.90
16198;DHT22;8206;51.440;6.914;2023-12-20T00:48:34;7.10;99.90
16198;DHT22;8206;51.440;6.914;2023-12-20T00:51:01;7.10;99.90
16198;DHT22;8206;51.440;6.914;2023-12-20T00:53:29;7.20;99.90
16198;DHT22;8206;51.440;6.914;2023-12-20T00:55:55;7.20;99.90
16198;DHT22;8206;51.440;6.914;2023-12-20T00:58:24;7.20;99.90
16198;DHT22;8206;51.440;6.914;2023-12-20T01:00:52;7.20;99.90
16198;DHT22;8206;51.440;6.914;2023-12-20T01:03:19;7.30;99.90
16198;DHT22;8206;51.440;6.914;2023-12-20T01:05:45;7.20;99.90
16198;DHT22;8206;51.440;6.914;2023-12-20T01:08:12;7.20;99.90
16198;DHT22;8206;51.440;6.914;2023-12-20T01:10:39;7.10;99.90
16198;DHT22;8206;51.440;6.914;2023-12-20T01:13:06;7.10;99.90
16198;DHT22;8206;51.440;6.914;2023-12-20T01:15:34;7.10;99.90
16198;DHT22;8206;51.440;6.914;2023-12-20T01:18:02;7.20;99.90
16198;DHT22;8206;51.440;6.914;2023-12-20T01:20:29;7.10;99.90
16198;DHT22;8206;51.440;6.914;2023-12-20T01:22:55;7.10;99.90
16198;DHT22;8206;51.440;6.914;2023-12-20T01:25:22;7.00;99.90
16198;DHT22;8206;51.440;6.914;2023-12-20T01:27:49;7.10;99.90
16198;DHT22;8206;51.440;6.914;2023-12-20T01:30:16;7.00;99.90
16198;DHT22;8206;51.440;6.914;2023-12-20T01:32:43;7.00;99.90
16198;DHT22;8206;51.440;6.914;2023-12-20T01:35:11;7.00;99.90
16198;DHT22;8206;51.440;6.914;2023-12-20T01:37:38;7.00;99.90
16198;DHT22;8206;51.440;6.914;2023-12-20T01:40:06;7.00;99.90
16198;DHT22;8206;51.440;6.914;2023-12-20T01:42:33;7.00;99.90
16198;DHT22;8206;51.440;6.914;2023-12-20T01:45:00;7.10;99.90
16198;DHT22;8206;51.440;6.914;2023-12-20T01:47:27;7.10;99.90
16198;DHT22;8206;51.440;6.914;2023-12-20T01:49:54;7.00;99.90
16198;DHT22;8206;51.440;6.914;2023-12-20T01:52:24;7.00;99.90
16198;DHT22;8206;51.440;6.914;2023-12-20T01:54:52;6.90;99.90
16198;DHT22;8206;51.440;6.914;2023-12-20T01:57:20;6.70;99.90
16198;DHT22;8206;51.440;6.914;2023-12-20T01:59:47;6.60;99.90
16198;DHT22;8206;51.440;6.914;2023-12-20T02:02:14;6.40;99.90
16198;DHT22;8206;51.440;6.914;2023-12-20T02:04:41;6.30;99.90
16198;DHT22;8206;51.440;6.914;2023-12-20T02:07:08;6.20;99.90
16198;DHT22;8206;51.440;6.914;2023-12-20T02:09:38;6.30;99.90
16198;DHT22;8206;51.440;6.914;2023-12-20T02:12:06;6.40;99.90
16198;DHT22;8206;51.440;6.914;2023-12-20T02:14:32;6.40;99.90
16198;DHT22;8206;51.440;6.914;2023-12-20T02:16:59;6.50;99.90
16198;DHT22;8206;51.440;6.914;2023-12-20T02:19:26;6.60;99.90
16198;DHT22;8206;51.440;6.914;2023-12-20T02:22:07;6.50;99.90
16198;DHT22;8206;51.440;6.914;2023-12-20T02:24:33;6.50;99.90
16198;DHT22;8206;51.440;6.914;2023-12-20T02:27:00;6.50;99.90
16198;DHT22;8206;51.440;6.914;2023-12-20T02:29:27;6.60;99.90
16198;DHT22;8206;51.440;6.914;2023-12-20T02:31:53;6.60;99.90
16198;DHT22;8206;51.440;6.914;2023-12-20T02:34:20;6.60;99.90
16198;DHT22;8206;51.440;6.914;2023-12-20T02:36:47;6.60;99.90
16198;DHT22;8206;51.440;6.914;2023-12-20T02:39:16;6.70;99.90
16198;DHT22;8206;51.440;6.914;2023-12-20T02:41:43;6.60;99.90
16198;DHT22;8206;51.440;6.914;2023-12-20T02:44:10;6.50;99.90
16198;DHT22;8206;51.440;6.914;2023-12-20T02:46:37;6.50;99.90
16198;DHT22;8206;51.440;6.914;2023-12-20T02:49:03;6.50;99.90
16198;DHT22;8206;51.440;6.914;2023-12-20T02:51:30;6.40;99.90
16198;DHT22;8206;51.440;6.914;2023-12-20T02:53:57;6.40;99.90
16198;DHT22;8206;51.440;6.914;2023-12-20T02:56:24;6.40;99.90
16198;DHT22;8206;51.440;6.914;2023-12-20T02:58:51;6.40;99.90
16198;DHT22;8206;51.440;6.914;2023-12-20T03:01:18;6.40;99.90
16198;DHT22;8206;51.440;6.914;2023-12-20T03:03:45;6.40;99.90
16198;DHT22;8206;51.440;6.914;2023-12-20T03:06:12;6.40;99.90
16198;DHT22;8206;51.440;6.914;2023-12-20T03:08:41;6.30;99.90
16198;DHT22;8206;51.440;6.914;2023-12-20T03:11:08;6.30;99.90
16198;DHT22;8206;51.440;6.914;2023-12-20T03:13:36;6.30;99.90
16198;DHT22;8206;51.440;6.914;2023-12-20T03:16:08;6.20;99.90
16198;DHT22;8206;51.440;6.914;2023-12-20T03:18:35;6.20;99.90
16198;DHT22;8206;51.440;6.914;2023-12-20T03:21:01;6.10;99.90
16198;DHT22;8206;51.440;6.914;2023-12-20T03:23:28;6.10;99.90
16198;DHT22;8206;51.440;6.914;2023-12-20T03:25:56;6.10;99.90
16198;DHT22;8206;51.440;6.914;2023-12-20T03:28:22;6.00;99.90
16198;DHT22;8206;51.440;6.914;2023-12-20T03:30:50;6.00;99.90
16198;DHT22;8206;51.440;6.914;2023-12-20T03:33:17;6.00;99.90
16198;DHT22;8206;51.440;6.914;2023-12-20T03:35:44;5.90;99.90
16198;DHT22;8206;51.440;6.914;2023-12-20T03:38:10;5.70;99.90
16198;DHT22;8206;51.440;6.914;2023-12-20T03:40:37;5.70;99.90
16198;DHT22;8206;51.440;6.914;2023-12-20T03:43:04;5.70;99.90
16198;DHT22;8206;51.440;6.914;2023-12-20T03:45:31;5.80;99.90
16198;DHT22;8206;51.440;6.914;2023-12-20T03:47:59;5.80;99.90
16198;DHT22;8206;51.440;6.914;2023-12-20T03:50:26;5.90;99.90
16198;DHT22;8206;51.440;6.914;2023-12-20T03:52:53;5.80;99.90
16198;DHT22;8206;51.440;6.914;2023-12-20T03:55:19;5.60;99.90
16198;DHT22;8206;51.440;6.914;2023-12-20T03:57:46;5.60;99.90
16198;DHT22;8206;51.440;6.914;2023-12-20T04:00:13;5.60;99.90
16198;DHT22;8206;51.440;6.914;2023-12-20T04:02:41;5.60;99.90
16198;DHT22;8206;51.440;6.914;2023-12-20T04:05:10;5.60;99.90
16198;DHT22;8206;51.440;6.914;2023-12-20T04:07:36;5.50;99.90
16198;DHT22;8206;51.440;6.914;2023-12-20T04:10:04;5.40;99.90
16198;DHT22;8206;51.440;6.914;2023-12-20T04:12:32;5.40;99.90
16198;DHT22;8206;51.440;6.914;2023-12-20T04:14:59;5.40;99.90
16198;DHT22;8206;51.440;6.914;2023-12-20T04:17:25;5.40;99.90
16198;DHT22;8206;51.440;6.914;2023-12-20T04:19:52;5.40;99.90
16198;DHT22;8206;51.440;6.914;2023-12-20T04:22:20;5.40;99.90
16198;DHT22;8206;51.440;6.914;2023-12-20T04:24:47;5.50;99.90
16198;DHT22;8206;51.440;6.914;2023-12-20T04:27:13;5.60;99.90
16198;DHT22;8206;51.440;6.914;2023-12-20T04:29:40;5.70;99.90
16198;DHT22;8206;51.440;6.914;2023-12-20T04:32:07;5.70;99.90
16198;DHT22;8206;51.440;6.914;2023-12-20T04:34:33;5.80;99.90
16198;DHT22;8206;51.440;6.914;2023-12-20T04:37:00;5.80;99.90
16198;DHT22;8206;51.440;6.914;2023-12-20T04:39:29;5.80;99.90
16198;DHT22;8206;51.440;6.914;2023-12-20T04:41:55;5.90;99.90
16198;DHT22;8206;51.440;6.914;2023-12-20T04:44:22;5.90;99.90
16198;DHT22;8206;51.440;6.914;2023-12-20T04:46:49;5.90;99.90
16198;DHT22;8206;51.440;6.914;2023-12-20T04:49:15;5.90;99.90
16198;DHT22;8206;51.440;6.914;2023-12-20T04:51:42;5.90;99.90
16198;DHT22;8206;51.440;6.914;2023-12-20T04:54:09;5.90;99.90
16198;DHT22;8206;51.440;6.914;2023-12-20T04:56:37;5.90;99.90
16198;DHT22;8206;51.440;6.914;2023-12-20T04:59:04;5.90;99.90
16198;DHT22;8206;51.440;6.914;2023-12-20T05:01:31;5.90;99.90
16198;DHT22;8206;51.440;6.914;2023-12-20T05:03:58;5.90;99.90
16198;DHT22;8206;51.440;6.914;2023-12-20T05:06:25;5.80;99.90
16198;DHT22;8206;51.440;6.914;2023-12-20T05:08:52;5.80;99.90
16198;DHT22;8206;51.440;6.914;2023-12-20T05:11:18;5.80;99.90
16198;DHT22;8206;51.440;6.914;2023-12-20T05:13:47;5.80;99.90
16198;DHT22;8206;51.440;6.914;2023-12-20T05:16:14;5.70;99.90
16198;DHT22;8206;51.440;6.914;2023-12-20T05:18:43;5.70;99.90
16198;DHT22;8206;51.440;6.914;2023-12-20T05:21:09;5.60;99.90
16198;DHT22;8206;51.440;6.914;2023-12-20T05:23:36;5.60;99.90
16198;DHT22;8206;51.440;6.914;2023-12-20T05:26:03;5.60;99.90
16198;DHT22;8206;51.440;6.914;2023-12-20T05:28:29;5.50;99.90
16198;DHT22;8206;51.440;6.914;2023-12-20T05:30:57;5.60;99.90
16198;DHT22;8206;51.440;6.914;2023-12-20T05:33:24;5.60;99.90
16198;DHT22;8206;51.440;6.914;2023-12-20T05:35:51;5.60;99.90
16198;DHT22;8206;51.440;6.914;2023-12-20T05:38:17;5.70;99.90
16198;DHT22;8206;51.440;6.914;2023-12-20T05:40:44;5.70;99.90
16198;DHT22;8206;51.440;6.914;2023-12-20T05:43:11;5.70;99.90
16198;DHT22;8206;51.440;6.914;2023-12-20T05:45:37;5.70;99.90
16198;DHT22;8206;51.440;6.914;2023-12-20T05:48:06;5.70;99.90
16198;DHT22;8206;51.440;6.914;2023-12-20T05:50:33;5.70;99.90
16198;DHT22;8206;51.440;6.914;2023-12-20T05:53:00;5.70;99.90
16198;DHT22;8206;51.440;6.914;2023-12-20T05:55:27;5.70;99.90
16198;DHT22;8206;51.440;6.914;2023-12-20T05:57:53;5.70;99.90
16198;DHT22;8206;51.440;6.914;2023-12-20T06:00:20;5.70;99.90
16198;DHT22;8206;51.440;6.914;2023-12-20T06:02:47;5.80;99.90
16198;DHT22;8206;51.440;6.914;2023-12-20T06:05:15;5.80;99.90
16198;DHT22;8206;51.440;6.914;2023-12-20T06:07:41;5.80;99.90
16198;DHT22;8206;51.440;6.914;2023-12-20T06:10:09;5.80;99.90
16198;DHT22;8206;51.440;6.914;2023-12-20T06:12:35;5.80;99.90
16198;DHT22;8206;51.440;6.914;2023-12-20T06:15:02;5.80;99.90
16198;DHT22;8206;51.440;6.914;2023-12-20T06:17:29;5.80;99.90
16198;DHT22;8206;51.440;6.914;2023-12-20T06:19:56;5.80;99.90
16198;DHT22;8206;51.440;6.914;2023-12-20T06:22:24;5.80;99.90
16198;DHT22;8206;51.440;6.914;2023-12-20T06:24:51;5.80;99.90
16198;DHT22;8206;51.440;6.914;2023-12-20T06:27:18;5.90;99.90
16198;DHT22;8206;51.440;6.914;2023-12-20T06:29:44;5.90;99.90
16198;DHT22;8206;51.440;6.914;2023-12-20T06:32:11;5.90;99.90
16198;DHT22;8206;51.440;6.914;2023-12-20T06:34:38;5.90;99.90
16198;DHT22;8206;51.440;6.914;2023-12-20T06:37:04;5.90;99.90
16198;DHT22;8206;51.440;6.914;2023-12-20T06:39:33;5.90;99.90
16198;DHT22;8206;51.440;6.914;2023-12-20T06:42:00;6.00;99.90
16198;DHT22;8206;51.440;6.914;2023-12-20T06:44:27;6.00;99.90
16198;DHT22;8206;51.440;6.914;2023-12-20T06:46:53;6.00;99.90
16198;DHT22;8206;51.440;6.914;2023-12-20T06:49:20;6.00;99.90
16198;DHT22;8206;51.440;6.914;2023-12-20T06:51:47;6.00;99.90
16198;DHT22;8206;51.440;6.914;2023-12-20T06:54:13;6.00;99.90
16198;DHT22;8206;51.440;6.914;2023-12-20T06:56:41;6.00;99.90
16198;DHT22;8206;51.440;6.914;2023-12-20T06:59:08;6.00;99.90
16198;DHT22;8206;51.440;6.914;2023-12-20T07:01:35;6.00;99.90
16198;DHT22;8206;51.440;6.914;2023-12-20T07:04:02;6.00;99.90
16198;DHT22;8206;51.440;6.914;2023-12-20T07:06:28;6.00;99.90
16198;DHT22;8206;51.440;6.914;2023-12-20T07:08:55;6.00;99.90
16198;DHT22;8206;51.440;6.914;2023-12-20T07:11:22;6.00;99.90
16198;DHT22;8206;51.440;6.914;2023-12-20T07:13:50;6.10;99.90
16198;DHT22;8206;51.440;6.914;2023-12-20T07:16:16;6.10;99.90
16198;DHT22;8206;51.440;6.914;2023-12-20T07:18:43;6.10;99.90
16198;DHT22;8206;51.440;6.914;2023-12-20T07:21:09;6.10;99.90
16198;DHT22;8206;51.440;6.914;2023-12-20T07:23:36;6.20;99.90
16198;DHT22;8206;51.440;6.914;2023-12-20T07:26:03;6.20;99.90
16198;DHT22;8206;51.440;6.914;2023-12-20T07:28:30;6.10;99.90
16198;DHT22;8206;51.440;6.914;2023-12-20T07:30:58;6.20;99.90
16198;DHT22;8206;51.440;6.914;2023-12-20T07:33:25;6.10;99.90
16198;DHT22;8206;51.440;6.914;2023-12-20T07:35:51;6.20;99.90
16198;DHT22;8206;51.440;6.914;2023-12-20T07:38:18;6.20;99.90
16198;DHT22;8206;51.440;6.914;2023-12-20T07:40:45;6.20;99.90
16198;DHT22;8206;51.440;6.914;2023-12-20T07:43:11;6.30;99.90
16198;DHT22;8206;51.440;6.914;2023-12-20T07:45:38;6.30;99.90
16198;DHT22;8206;51.440;6.914;2023-12-20T07:48:07;6.30;99.90
16198;DHT22;8206;51.440;6.914;2023-12-20T07:50:34;6.30;99.90
16198;DHT22;8206;51.440;6.914;2023-12-20T07:53:01;6.30;99.90
16198;DHT22;8206;51.440;6.914;2023-12-20T07:55:28;6.30;99.90
16198;DHT22;8206;51.440;6.914;2023-12-20T07:57:55;6.40;99.90
16198;DHT22;8206;51.440;6.914;2023-12-20T08:00:22;6.30;99.90
16198;DHT22;8206;51.440;6.914;2023-12-20T08:02:49;6.30;99.90
16198;DHT22;8206;51.440;6.914;2023-12-20T08:05:17;6.40;99.90
16198;DHT22;8206;51.440;6.914;2023-12-20T08:07:43;6.40;99.90
16198;DHT22;8206;51.440;6.914;2023-12-20T08:10:10;6.30;99.90
16198;DHT22;8206;51.440;6.914;2023-12-20T08:12:37;6.40;99.90
16198;DHT22;8206;51.440;6.914;2023-12-20T08:15:06;6.40;99.90
16198;DHT22;8206;51.440;6.914;2023-12-20T08:17:32;6.40;99.90
16198;DHT22;8206;51.440;6.914;2023-12-20T08:19:59;6.40;99.90
16198;DHT22;8206;51.440;6.914;2023-12-20T08:22:27;6.50;99.90
16198;DHT22;8206;51.440;6.914;2023-12-20T08:24:54;6.50;99.90
16198;DHT22;8206;51.440;6.914;2023-12-20T08:27:21;6.50;99.90
16198;DHT22;8206;51.440;6.914;2023-12-20T08:29:47;6.50;99.90
16198;DHT22;8206;51.440;6.914;2023-12-20T08:32:15;6.50;99.90
16198;DHT22;8206;51.440;6.914;2023-12-20T08:34:42;6.50;99.90
16198;DHT22;8206;51.440;6.914;2023-12-20T08:37:08;6.50;99.90
16198;DHT22;8206;51.440;6.914;2023-12-20T08:39:36;6.50;99.90
16198;DHT22;8206;51.440;6.914;2023-12-20T08:42:04;6.50;99.90
16198;DHT22;8206;51.440;6.914;2023-12-20T08:44:30;6.50;99.90
16198;DHT22;8206;51.440;6.914;2023-12-20T08:46:57;6.50;99.90
16198;DHT22;8206;51.440;6.914;2023-12-20T08:49:24;6.50;99.90
16198;DHT22;8206;51.440;6.914;2023-12-20T08:51:51;6.50;99.90
16198;DHT22;8206;51.440;6.914;2023-12-20T08:54:17;6.50;99.90
16198;DHT22;8206;51.440;6.914;2023-12-20T08:56:46;6.50;99.90
16198;DHT22;8206;51.440;6.914;2023-12-20T08:59:13;6.50;99.90
16198;DHT22;8206;51.440;6.914;2023-12-20T09:01:39;6.50;99.90
16198;DHT22;8206;51.440;6.914;2023-12-20T09:04:06;6.50;99.90
16198;DHT22;8206;51.440;6.914;2023-12-20T09:06:33;6.50;99.90
16198;DHT22;8206;51.440;6.914;2023-12-20T09:08:59;6.60;99.90
16198;DHT22;8206;51.440;6.914;2023-12-20T09:11:26;6.50;99.90
16198;DHT22;8206;51.440;6.914;2023-12-20T09:13:54;6.50;99.90
16198;DHT22;8206;51.440;6.914;2023-12-20T09:16:21;6.50;99.90
16198;DHT22;8206;51.440;6.914;2023-12-20T09:18:47;6.60;99.90
16198;DHT22;8206;51.440;6.914;2023-12-20T09:21:14;6.60;99.90
16198;DHT22;8206;51.440;6.914;2023-12-20T09:23:41;6.60;99.90
16198;DHT22;8206;51.440;6.914;2023-12-20T09:26:08;6.60;99.90
16198;DHT22;8206;51.440;6.914;2023-12-20T09:28:34;6.60;99.90
16198;DHT22;8206;51.440;6.914;2023-12-20T09:31:04;6.70;99.90
16198;DHT22;8206;51.440;6.914;2023-12-20T09:33:30;6.60;99.90
16198;DHT22;8206;51.440;6.914;2023-12-20T09:35:57;6.60;99.90
16198;DHT22;8206;51.440;6.914;2023-12-20T09:38:24;6.60;99.90
16198;DHT22;8206;51.440;6.914;2023-12-20T09:40:51;6.70;99.90
16198;DHT22;8206;51.440;6.914;2023-12-20T09:43:20;6.70;99.90
16198;DHT22;8206;51.440;6.914;2023-12-20T09:45:47;6.70;99.90
16198;DHT22;8206;51.440;6.914;2023-12-20T09:48:18;6.80;99.90
16198;DHT22;8206;51.440;6.914;2023-12-20T09:50:45;6.80;99.90
16198;DHT22;8206;51.440;6.914;2023-12-20T09:53:15;6.80;99.90
16198;DHT22;8206;51.440;6.914;2023-12-20T09:55:42;6.80;93.20
16198;DHT22;8206;51.440;6.914;2023-12-20T09:58:09;6.80;99.90
16198;DHT22;8206;51.440;6.914;2023-12-20T10:00:36;6.80;99.90
16198;DHT22;8206;51.440;6.914;2023-12-20T10:03:03;6.90;99.90
16198;DHT22;8206;51.440;6.914;2023-12-20T10:05:34;6.90;99.90
16198;DHT22;8206;51.440;6.914;2023-12-20T10:08:01;6.90;99.90
16198;DHT22;8206;51.440;6.914;2023-12-20T10:10:28;6.90;99.90
16198;DHT22;8206;51.440;6.914;2023-12-20T10:13:03;6.90;99.90
16198;DHT22;8206;51.440;6.914;2023-12-20T10:15:31;6.90;99.90
16198;DHT22;8206;51.440;6.914;2023-12-20T10:17:58;6.90;99.90
16198;DHT22;8206;51.440;6.914;2023-12-20T10:20:25;6.90;99.90
16198;DHT22;8206;51.440;6.914;2023-12-20T10:22:54;6.90;99.90
16198;DHT22;8206;51.440;6.914;2023-12-20T10:25:21;6.90;99.90
16198;DHT22;8206;51.440;6.914;2023-12-20T10:27:49;7.00;99.90
16198;DHT22;8206;51.440;6.914;2023-12-20T10:30:16;7.10;99.90
16198;DHT22;8206;51.440;6.914;2023-12-20T10:32:42;7.00;99.90
16198;DHT22;8206;51.440;6.914;2023-12-20T10:35:09;7.10;99.90
16198;DHT22;8206;51.440;6.914;2023-12-20T10:37:36;7.20;99.90
16198;DHT22;8206;51.440;6.914;2023-12-20T10:40:05;7.20;99.90
16198;DHT22;8206;51.440;6.914;2023-12-20T10:42:32;7.20;99.90
16198;DHT22;8206;51.440;6.914;2023-12-20T10:45:00;7.20;99.90
16198;DHT22;8206;51.440;6.914;2023-12-20T10:47:28;7.10;99.90
16198;DHT22;8206;51.440;6.914;2023-12-20T10:49:59;7.10;99.90
16198;DHT22;8206;51.440;6.914;2023-12-20T10:52:27;7.10;99.90
16198;DHT22;8206;51.440;6.914;2023-12-20T10:54:55;7.10;99.90
16198;DHT22;8206;51.440;6.914;2023-12-20T10:57:26;7.10;99.90
16198;DHT22;8206;51.440;6.914;2023-12-20T10:59:54;7.20;99.90
16198;DHT22;8206;51.440;6.914;2023-12-20T11:02:22;7.20;99.90
16198;DHT22;8206;51.440;6.914;2023-12-20T11:04:53;7.20;99.90
16198;DHT22;8206;51.440;6.914;2023-12-20T11:07:25;7.20;99.90
16198;DHT22;8206;51.440;6.914;2023-12-20T11:09:58;7.10;99.90
16198;DHT22;8206;51.440;6.914;2023-12-20T11:12:35;7.10;99.90
16198;DHT22;8206;51.440;6.914;2023-12-20T11:15:04;7.10;99.90
16198;DHT22;8206;51.440;6.914;2023-12-20T11:17:31;7.10;99.90
16198;DHT22;8206;51.440;6.914;2023-12-20T11:20:06;7.10;99.90
16198;DHT22;8206;51.440;6.914;2023-12-20T11:22:36;7.10;99.90
16198;DHT22;8206;51.440;6.914;2023-12-20T11:25:04;7.20;99.90
16198;DHT22;8206;51.440;6.914;2023-12-20T11:27:35;7.30;99.90
16198;DHT22;8206;51.440;6.914;2023-12-20T11:30:03;7.30;99.90
16198;DHT22;8206;51.440;6.914;2023-12-20T11:32:32;7.30;99.90
16198;DHT22;8206;51.440;6.914;2023-12-20T11:35:01;7.20;99.90
16198;DHT22;8206;51.440;6.914;2023-12-20T11:37:32;7.30;99.90
16198;DHT22;8206;51.440;6.914;2023-12-20T11:40:05;7.30;99.90
16198;DHT22;8206;51.440;6.914;2023-12-20T11:42:39;7.30;99.90
16198;DHT22;8206;51.440;6.914;2023-12-20T11:45:08;7.30;99.90
16198;DHT22;8206;51.440;6.914;2023-12-20T11:47:36;7.30;99.90
16198;DHT22;8206;51.440;6.914;2023-12-20T11:50:03;7.30;99.90
16198;DHT22;8206;51.440;6.914;2023-12-20T11:52:30;7.30;99.90
16198;DHT22;8206;51.440;6.914;2023-12-20T11:54:57;7.30;99.90
16198;DHT22;8206;51.440;6.914;2023-12-20T11:57:24;7.30;99.90
16198;DHT22;8206;51.440;6.914;2023-12-20T11:59:52;7.20;99.90
16198;DHT22;8206;51.440;6.914;2023-12-20T12:02:19;7.20;99.90
16198;DHT22;8206;51.440;6.914;2023-12-20T12:04:48;7.20;99.90
16198;DHT22;8206;51.440;6.914;2023-12-20T12:07:16;7.20;99.90
16198;DHT22;8206;51.440;6.914;2023-12-20T12:09:42;7.20;99.90
16198;DHT22;8206;51.440;6.914;2023-12-20T12:12:10;7.20;99.90
16198;DHT22;8206;51.440;6.914;2023-12-20T12:14:37;7.20;99.90
16198;DHT22;8206;51.440;6.914;2023-12-20T12:17:10;7.20;99.90
16198;DHT22;8206;51.440;6.914;2023-12-20T12:19:36;7.30;99.90
16198;DHT22;8206;51.440;6.914;2023-12-20T12:22:07;7.30;99.90
16198;DHT22;8206;51.440;6.914;2023-12-20T12:24:35;7.30;99.90
16198;DHT22;8206;51.440;6.914;2023-12-20T12:27:02;7.30;99.90
16198;DHT22;8206;51.440;6.914;2023-12-20T12:29:29;7.30;99.90
16198;DHT22;8206;51.440;6.914;2023-12-20T12:31:56;7.40;99.90
16198;DHT22;8206;51.440;6.914;2023-12-20T12:34:25;7.40;99.90
16198;DHT22;8206;51.440;6.914;2023-12-20T12:36:53;7.40;99.90
16198;DHT22;8206;51.440;6.914;2023-12-20T12:39:20;7.30;99.90
16198;DHT22;8206;51.440;6.914;2023-12-20T12:41:46;7.40;99.90
16198;DHT22;8206;51.440;6.914;2023-12-20T12:44:13;7.40;99.90
16198;DHT22;8206;51.440;6.914;2023-12-20T12:46:40;7.40;99.90
16198;DHT22;8206;51.440;6.914;2023-12-20T12:49:07;7.40;99.90
16198;DHT22;8206;51.440;6.914;2023-12-20T12:51:35;7.50;99.90
16198;DHT22;8206;51.440;6.914;2023-12-20T12:54:01;7.60;99.90
16198;DHT22;8206;51.440;6.914;2023-12-20T12:56:29;7.50;99.90
16198;DHT22;8206;51.440;6.914;2023-12-20T12:58:55;7.50;99.90
16198;DHT22;8206;51.440;6.914;2023-12-20T13:01:22;7.50;99.90
16198;DHT22;8206;51.440;6.914;2023-12-20T13:03:49;7.50;99.90
16198;DHT22;8206;51.440;6.914;2023-12-20T13:06:16;7.50;99.90
16198;DHT22;8206;51.440;6.914;2023-12-20T13:08:44;7.50;99.90
16198;DHT22;8206;51.440;6.914;2023-12-20T13:11:11;7.40;99.90
16198;DHT22;8206;51.440;6.914;2023-12-20T13:13:38;7.40;99.90
16198;DHT22;8206;51.440;6.914;2023-12-20T13:16:05;7.40;99.90
16198;DHT22;8206;51.440;6.914;2023-12-20T13:18:32;7.30;99.90
16198;DHT22;8206;51.440;6.914;2023-12-20T13:20:58;7.30;99.90
16198;DHT22;8206;51.440;6.914;2023-12-20T13:23:25;7.30;99.90
16198;DHT22;8206;51.440;6.914;2023-12-20T13:25:53;7.20;99.90
16198;DHT22;8206;51.440;6.914;2023-12-20T13:28:20;7.20;99.90
16198;DHT22;8206;51.440;6.914;2023-12-20T13:30:46;7.20;99.90
16198;DHT22;8206;51.440;6.914;2023-12-20T13:33:13;7.10;99.90
16198;DHT22;8206;51.440;6.914;2023-12-20T13:35:40;7.10;99.90
16198;DHT22;8206;51.440;6.914;2023-12-20T13:38:06;7.10;99.90
16198;DHT22;8206;51.440;6.914;2023-12-20T13:40:33;7.00;99.90
16198;DHT22;8206;51.440;6.914;2023-12-20T13:43:01;7.10;99.90
16198;DHT22;8206;51.440;6.914;2023-12-20T13:45:29;7.00;99.90
16198;DHT22;8206;51.440;6.914;2023-12-20T13:47:55;7.00;99.90
16198;DHT22;8206;51.440;6.914;2023-12-20T13:50:22;7.00;99.90
16198;DHT22;8206;51.440;6.914;2023-12-20T13:52:48;7.00;99.90
16198;DHT22;8206;51.440;6.914;2023-12-20T13:55:15;7.00;99.90
16198;DHT22;8206;51.440;6.914;2023-12-20T13:57:41;7.00;99.90
16198;DHT22;8206;51.440;6.914;2023-12-20T14:00:11;7.00;99.90
16198;DHT22;8206;51.440;6.914;2023-12-20T14:02:40;7.10;99.90
16198;DHT22;8206;51.440;6.914;2023-12-20T14:05:08;7.10;99.90
16198;DHT22;8206;51.440;6.914;2023-12-20T14:07:35;7.10;99.90
16198;DHT22;8206;51.440;6.914;2023-12-20T14:10:01;7.10;99.90
16198;DHT22;8206;51.440;6.914;2023-12-20T14:12:29;7.10;99.90
16198;DHT22;8206;51.440;6.914;2023-12-20T14:14:55;7.10;99.90
16198;DHT22;8206;51.440;6.914;2023-12-20T14:17:23;7.00;99.90
16198;DHT22;8206;51.440;6.914;2023-12-20T14:19:50;7.00;99.90
16198;DHT22;8206;51.440;6.914;2023-12-20T14:22:17;7.00;99.90
16198;DHT22;8206;51.440;6.914;2023-12-20T14:24:44;7.00;99.90
16198;DHT22;8206;51.440;6.914;2023-12-20T14:27:11;7.00;99.90
16198;DHT22;8206;51.440;6.914;2023-12-20T14:29:38;7.00;99.90
16198;DHT22;8206;51.440;6.914;2023-12-20T14:32:06;7.00;99.90
16198;DHT22;8206;51.440;6.914;2023-12-20T14:34:34;7.00;99.90
16198;DHT22;8206;51.440;6.914;2023-12-20T14:37:02;6.90;99.90
16198;DHT22;8206;51.440;6.914;2023-12-20T14:39:29;7.00;99.90
16198;DHT22;8206;51.440;6.914;2023-12-20T14:41:55;7.00;99.90
16198;DHT22;8206;51.440;6.914;2023-12-20T14:44:23;7.00;99.90
16198;DHT22;8206;51.440;6.914;2023-12-20T14:46:50;7.00;99.90
16198;DHT22;8206;51.440;6.914;2023-12-20T14:49:16;7.00;99.90
16198;DHT22;8206;51.440;6.914;2023-12-20T14:51:45;7.00;99.90
16198;DHT22;8206;51.440;6.914;2023-12-20T14:54:13;7.00;99.90
16198;DHT22;8206;51.440;6.914;2023-12-20T14:56:40;7.00;99.90
16198;DHT22;8206;51.440;6.914;2023-12-20T14:59:07;7.10;99.90
16198;DHT22;8206;51.440;6.914;2023-12-20T15:01:34;7.00;99.90
16198;DHT22;8206;51.440;6.914;2023-12-20T15:04:01;7.10;99.90
16198;DHT22;8206;51.440;6.914;2023-12-20T15:06:29;7.10;99.90
16198;DHT22;8206;51.440;6.914;2023-12-20T15:08:59;7.10;99.90
16198;DHT22;8206;51.440;6.914;2023-12-20T15:11:25;7.20;99.90
16198;DHT22;8206;51.440;6.914;2023-12-20T15:13:52;7.10;99.90
16198;DHT22;8206;51.440;6.914;2023-12-20T15:16:21;7.10;99.90
16198;DHT22;8206;51.440;6.914;2023-12-20T15:18:48;7.10;99.90
16198;DHT22;8206;51.440;6.914;2023-12-20T15:21:15;7.20;99.90
16198;DHT22;8206;51.440;6.914;2023-12-20T15:23:42;7.10;99.90
16198;DHT22;8206;51.440;6.914;2023-12-20T15:26:19;7.20;99.90
16198;DHT22;8206;51.440;6.914;2023-12-20T15:28:46;7.20;99.90
16198;DHT22;8206;51.440;6.914;2023-12-20T15:31:12;7.20;99.90
16198;DHT22;8206;51.440;6.914;2023-12-20T15:33:39;7.20;99.90
16198;DHT22;8206;51.440;6.914;2023-12-20T15:36:06;7.20;99.90
16198;DHT22;8206;51.440;6.914;2023-12-20T15:38:33;7.20;99.90
16198;DHT22;8206;51.440;6.914;2023-12-20T15:41:00;7.20;99.90
16198;DHT22;8206;51.440;6.914;2023-12-20T15:43:28;7.20;99.90
16198;DHT22;8206;51.440;6.914;2023-12-20T15:45:55;7.20;99.90
16198;DHT22;8206;51.440;6.914;2023-12-20T15:48:21;7.20;99.90
16198;DHT22;8206;51.440;6.914;2023-12-20T15:50:53;7.20;99.90
16198;DHT22;8206;51.440;6.914;2023-12-20T15:53:20;7.30;99.90
16198;DHT22;8206;51.440;6.914;2023-12-20T15:55:47;7.30;99.90
16198;DHT22;8206;51.440;6.914;2023-12-20T15:58:13;7.30;99.90
16198;DHT22;8206;51.440;6.914;2023-12-20T16:00:41;7.30;99.90
16198;DHT22;8206;51.440;6.914;2023-12-20T16:03:08;7.30;99.90